Time;durP1;ratioP1;P1;durP2;ratioP2;P2;SDS_P1;SDS_P2;PMS_P1;PMS_P2;Temp;Humidity;BMP_temperature;BMP_pressure;BME280_temperature;BME280_humidity;BME280_pressure;Samples;Min_cycle;Max_cycle;Signal;HPM_P1;HPM_P2
2021/01/19 00:02:05;;;;;;;7.47;4.00;;;5.80;99.90;;;;;;4972951;28;20670;-65
2021/01/19 00:04:31;;;;;;;10.03;3.90;;;5.80;99.90;;;;;;4979467;28;20256;-64
2021/01/19 00:06:56;;;;;;;5.60;3.47;;;5.70;99.90;;;;;;4992796;28;20169;-64
2021/01/19 00:09:22;;;;;;;8.00;4.50;;;5.70;99.90;;;;;;4986756;28;20627;-65
2021/01/19 00:11:47;;;;;;;7.53;3.87;;;5.70;99.90;;;;;;4972789;28;20188;-65
2021/01/19 00:14:13;;;;;;;3.93;2.83;;;5.70;99.90;;;;;;4975898;28;20165;-65
2021/01/19 00:16:39;;;;;;;8.67;3.50;;;5.70;99.90;;;;;;4992198;28;20173;-62
2021/01/19 00:19:04;;;;;;;6.63;2.87;;;5.70;99.90;;;;;;4973988;28;20209;-65
2021/01/19 00:21:30;;;;;;;5.33;3.03;;;5.70;99.90;;;;;;4972745;28;20173;-65
2021/01/19 00:23:55;;;;;;;6.77;3.10;;;5.70;99.90;;;;;;4988608;28;20181;-64
2021/01/19 00:26:21;;;;;;;3.47;2.40;;;5.70;99.90;;;;;;4992142;28;20263;-64
2021/01/19 00:28:46;;;;;;;4.80;2.40;;;5.80;99.90;;;;;;4977039;28;20205;-64
2021/01/19 00:31:12;;;;;;;6.33;2.60;;;5.80;99.90;;;;;;4972876;28;20206;-65
2021/01/19 00:33:37;;;;;;;4.37;2.80;;;5.80;99.90;;;;;;4984966;28;20181;-64
2021/01/19 00:36:03;;;;;;;3.60;2.33;;;5.80;99.90;;;;;;4991991;28;20165;-64
2021/01/19 00:38:29;;;;;;;8.27;2.30;;;5.80;99.90;;;;;;4980428;28;20178;-64
2021/01/19 00:40:54;;;;;;;7.73;2.77;;;5.80;99.90;;;;;;4972455;28;20288;-64
2021/01/19 00:43:20;;;;;;;4.47;2.63;;;5.80;99.90;;;;;;4981484;28;20552;-65
2021/01/19 00:45:46;;;;;;;4.10;2.33;;;5.80;99.90;;;;;;4986967;28;20177;-65
2021/01/19 00:48:11;;;;;;;5.27;2.57;;;5.80;99.90;;;;;;4970921;28;20705;-64
2021/01/19 00:50:37;;;;;;;4.10;2.80;;;5.80;99.90;;;;;;4974971;28;20271;-64
2021/01/19 00:53:03;;;;;;;7.30;2.60;;;5.80;99.90;;;;;;4991800;28;20286;-65
2021/01/19 00:55:29;;;;;;;5.23;2.20;;;5.80;99.90;;;;;;4990356;28;20205;-65
2021/01/19 00:57:54;;;;;;;4.40;2.97;;;5.80;99.90;;;;;;4972236;28;20232;-65
2021/01/19 01:00:20;;;;;;;5.20;2.40;;;5.80;99.90;;;;;;4972284;28;20237;-63
2021/01/19 01:02:46;;;;;;;3.03;1.97;;;5.80;99.90;;;;;;4991010;28;20191;-64
2021/01/19 01:05:12;;;;;;;4.63;2.00;;;5.80;99.90;;;;;;4995099;28;20169;-64
2021/01/19 01:07:41;;;;;;;3.33;2.10;;;5.80;99.90;;;;;;4980908;28;20449;-65
2021/01/19 01:10:08;;;;;;;3.20;1.73;;;5.90;99.90;;;;;;4975771;28;20189;-64
2021/01/19 01:12:34;;;;;;;2.13;1.80;;;5.90;99.90;;;;;;4991973;28;20204;-63
2021/01/19 01:15:00;;;;;;;3.80;1.90;;;5.90;99.90;;;;;;4983182;28;20174;-65
2021/01/19 01:17:26;;;;;;;3.27;1.97;;;5.90;99.90;;;;;;4975223;28;20192;-64
2021/01/19 01:19:52;;;;;;;1.90;1.80;;;5.90;99.90;;;;;;4985672;28;20201;-65
2021/01/19 01:22:17;;;;;;;4.63;2.10;;;5.90;99.90;;;;;;4995078;28;20173;-63
2021/01/19 01:24:43;;;;;;;3.53;2.07;;;5.90;99.90;;;;;;4975837;28;20178;-64
2021/01/19 01:27:09;;;;;;;3.73;2.07;;;5.90;99.90;;;;;;4975230;28;20201;-63
2021/01/19 01:29:34;;;;;;;4.50;1.97;;;5.80;99.90;;;;;;4992559;28;20291;-64
2021/01/19 01:32:00;;;;;;;3.37;2.20;;;5.80;99.90;;;;;;4994983;28;20181;-64
2021/01/19 01:34:26;;;;;;;2.73;1.90;;;5.80;99.90;;;;;;4978926;28;20192;-65
2021/01/19 01:36:51;;;;;;;8.37;2.10;;;5.80;99.90;;;;;;4975232;28;20173;-64
2021/01/19 01:39:17;;;;;;;6.40;2.50;;;5.80;99.90;;;;;;4988976;28;20757;-63
2021/01/19 01:41:43;;;;;;;3.23;1.97;;;5.80;99.90;;;;;;4995036;28;20259;-64
2021/01/19 01:44:08;;;;;;;2.33;2.00;;;5.70;99.90;;;;;;4976350;28;20248;-64
2021/01/19 01:46:36;;;;;;;2.93;2.07;;;5.70;99.90;;;;;;4975212;28;20174;-65
2021/01/19 01:49:02;;;;;;;2.40;2.20;;;5.70;99.90;;;;;;4991037;28;20212;-64
2021/01/19 01:51:29;;;;;;;2.43;2.20;;;5.70;99.90;;;;;;4994432;28;20200;-64
2021/01/19 01:53:56;;;;;;;4.47;1.90;;;5.60;99.90;;;;;;4979092;28;20458;-64
2021/01/19 01:56:22;;;;;;;3.03;1.97;;;5.60;99.90;;;;;;4975129;28;20570;-64
2021/01/19 01:58:48;;;;;;;3.10;1.90;;;5.60;99.90;;;;;;4974919;28;20670;-65
2021/01/19 02:01:14;;;;;;;4.43;2.57;;;5.60;99.90;;;;;;4974937;28;20556;-65
2021/01/19 02:03:39;;;;;;;2.00;1.80;;;5.60;99.90;;;;;;4986684;28;20243;-64
2021/01/19 02:06:05;;;;;;;3.80;2.10;;;5.60;99.90;;;;;;4994434;28;20641;-65
2021/01/19 02:08:59;;;;;;;4.83;1.97;;;5.60;99.90;;;;;;4983169;28;20213;-64
2021/01/19 02:11:43;;;;;;;5.60;2.20;;;5.60;99.90;;;;;;4984155;28;20542;-65
2021/01/19 02:14:23;;;;;;;2.73;2.23;;;5.60;99.90;;;;;;4994279;28;20552;-65
2021/01/19 02:17:15;;;;;;;4.70;2.30;;;5.50;99.90;;;;;;4980907;28;20189;-65
2021/01/19 02:19:57;;;;;;;5.60;1.93;;;5.50;99.90;;;;;;4974534;28;20201;-65
2021/01/19 02:23:00;;;;;;;3.13;2.47;;;5.40;99.90;;;;;;4990894;28;20581;-65
2021/01/19 02:25:33;;;;;;;5.93;2.70;;;5.30;99.90;;;;;;4993715;28;20177;-64
2021/01/19 02:28:29;;;;;;;3.33;2.40;;;5.30;99.90;;;;;;4958766;28;20216;-65
2021/01/19 02:31:30;;;;;;;4.70;2.43;;;5.20;99.90;;;;;;4977482;28;20196;-65
2021/01/19 02:34:27;;;;;;;10.03;2.60;;;5.10;99.90;;;;;;4993956;28;20168;-65
2021/01/19 02:37:06;;;;;;;4.33;2.33;;;5.00;99.90;;;;;;4982945;28;20240;-65
2021/01/19 02:39:43;;;;;;;6.97;2.67;;;5.00;99.90;;;;;;4973788;28;20617;-65
2021/01/19 02:42:12;;;;;;;5.47;2.10;;;4.90;99.90;;;;;;4986234;28;20188;-65
2021/01/19 02:44:40;;;;;;;3.50;2.10;;;4.80;99.90;;;;;;4993407;28;20173;-65
2021/01/19 02:47:05;;;;;;;9.37;3.00;;;4.80;99.90;;;;;;4954648;28;20644;-65
2021/01/19 02:49:31;;;;;;;6.13;2.90;;;4.70;99.90;;;;;;4954608;28;20210;-64
2021/01/19 02:51:59;;;;;;;5.70;2.50;;;4.70;99.90;;;;;;4990998;28;20181;-65
2021/01/19 02:54:26;;;;;;;10.17;2.90;;;4.70;99.90;;;;;;4993488;28;20169;-65
2021/01/19 02:57:08;;;;;;;4.00;2.23;;;4.60;99.90;;;;;;4976242;28;20185;-64
2021/01/19 02:59:55;;;;;;;13.37;2.87;;;4.60;99.90;;;;;;4979403;28;20595;-65
2021/01/19 03:02:25;;;;;;;4.50;2.60;;;4.60;99.90;;;;;;4993540;28;20181;-64
2021/01/19 03:04:53;;;;;;;5.73;2.40;;;4.70;99.90;;;;;;4985648;28;20189;-64
2021/01/19 03:07:21;;;;;;;5.00;2.70;;;4.70;99.90;;;;;;4972277;28;20189;-64
2021/01/19 03:09:49;;;;;;;5.87;2.67;;;4.70;99.90;;;;;;4979721;28;20271;-65
2021/01/19 03:12:16;;;;;;;5.73;2.90;;;4.60;99.90;;;;;;4993160;28;20188;-65
2021/01/19 03:14:43;;;;;;;6.23;2.93;;;4.60;99.90;;;;;;4987863;28;20190;-64
2021/01/19 03:17:11;;;;;;;3.77;2.57;;;4.60;99.90;;;;;;4972340;28;20193;-64
2021/01/19 03:19:39;;;;;;;5.30;2.40;;;4.60;99.90;;;;;;4977251;28;20204;-65
2021/01/19 03:22:05;;;;;;;6.63;2.53;;;4.60;99.90;;;;;;4993174;28;20179;-65
2021/01/19 03:24:31;;;;;;;6.13;2.57;;;4.60;99.90;;;;;;4974026;28;20240;-65
2021/01/19 03:26:57;;;;;;;3.70;2.50;;;4.50;99.90;;;;;;4973316;28;20181;-65
2021/01/19 03:29:23;;;;;;;7.97;2.97;;;4.50;99.90;;;;;;4989998;28;20282;-64
2021/01/19 03:31:49;;;;;;;6.23;2.67;;;4.50;99.90;;;;;;4993047;28;20181;-65
2021/01/19 03:34:14;;;;;;;5.50;2.87;;;4.60;99.90;;;;;;4977162;28;20577;-65
2021/01/19 03:36:40;;;;;;;4.90;2.90;;;4.60;99.90;;;;;;4973083;28;20236;-65
2021/01/19 03:39:06;;;;;;;6.20;2.60;;;4.70;99.90;;;;;;4986447;28;20212;-65
2021/01/19 03:41:32;;;;;;;3.60;2.27;;;4.70;99.90;;;;;;4992469;28;20204;-65
2021/01/19 03:43:57;;;;;;;3.63;2.53;;;4.80;99.90;;;;;;4980373;28;20658;-66
2021/01/19 03:46:23;;;;;;;6.70;2.60;;;4.80;99.90;;;;;;4973424;28;20330;-65
2021/01/19 03:48:49;;;;;;;6.40;2.70;;;4.80;99.90;;;;;;4990385;28;20290;-66
2021/01/19 03:51:15;;;;;;;3.10;2.70;;;4.80;99.90;;;;;;4992688;28;20514;-66
2021/01/19 03:53:41;;;;;;;4.63;3.17;;;4.90;99.90;;;;;;4974670;28;20213;-66
2021/01/19 03:56:07;;;;;;;9.40;3.07;;;4.90;99.90;;;;;;4973483;28;20201;-65
2021/01/19 03:58:32;;;;;;;2.60;2.40;;;4.90;99.90;;;;;;4987015;28;20200;-64
2021/01/19 04:00:58;;;;;;;5.40;2.57;;;4.90;99.90;;;;;;4985005;28;20209;-66
2021/01/19 04:03:23;;;;;;;5.43;2.70;;;4.90;99.90;;;;;;4976500;28;20199;-66
2021/01/19 04:05:49;;;;;;;4.63;3.40;;;4.90;99.90;;;;;;4992643;28;20211;-66
2021/01/19 04:08:14;;;;;;;7.00;2.77;;;4.90;99.90;;;;;;4989830;28;20216;-64
2021/01/19 04:10:40;;;;;;;7.03;2.70;;;4.90;99.90;;;;;;4972821;28;20194;-64
2021/01/19 04:13:06;;;;;;;3.73;2.47;;;4.90;99.90;;;;;;4973028;28;20260;-65
2021/01/19 04:15:31;;;;;;;6.00;3.10;;;5.00;99.90;;;;;;4991997;28;20173;-65
2021/01/19 04:17:57;;;;;;;10.93;4.13;;;5.00;99.90;;;;;;4992072;28;20394;-65
2021/01/19 04:20:23;;;;;;;9.40;3.50;;;5.00;99.90;;;;;;4974221;28;20201;-65
2021/01/19 04:22:48;;;;;;;5.07;2.70;;;5.00;99.90;;;;;;4972924;28;20519;-65
2021/01/19 04:25:14;;;;;;;11.60;3.80;;;5.00;99.90;;;;;;4988809;28;20243;-65
2021/01/19 04:27:39;;;;;;;6.30;2.83;;;5.00;99.90;;;;;;4991688;28;20284;-65
2021/01/19 04:30:08;;;;;;;6.37;2.87;;;5.00;99.90;;;;;;4977154;28;20693;-64
2021/01/19 04:32:36;;;;;;;4.13;2.60;;;5.00;99.90;;;;;;4974198;28;20170;-65
2021/01/19 04:35:02;;;;;;;12.13;3.23;;;5.10;99.90;;;;;;4992211;28;20181;-64
2021/01/19 04:37:28;;;;;;;5.57;2.50;;;5.10;99.90;;;;;;4991221;28;20219;-64
2021/01/19 04:39:53;;;;;;;5.97;3.33;;;5.00;99.90;;;;;;4975414;28;20221;-64
2021/01/19 04:42:20;;;;;;;8.03;3.50;;;4.90;99.90;;;;;;4976382;28;20177;-66
2021/01/19 04:44:48;;;;;;;7.63;3.63;;;4.90;99.90;;;;;;4994080;28;20628;-66
2021/01/19 04:47:13;;;;;;;6.80;3.20;;;4.80;99.90;;;;;;4995482;28;20542;-65
2021/01/19 04:49:41;;;;;;;3.70;3.03;;;4.80;99.90;;;;;;4978719;28;20279;-65
2021/01/19 04:52:13;;;;;;;7.07;2.97;;;4.80;99.90;;;;;;4976351;28;20170;-65
2021/01/19 04:54:57;;;;;;;8.67;4.13;;;4.70;99.90;;;;;;4991837;28;20296;-65
2021/01/19 04:57:29;;;;;;;6.87;3.17;;;4.70;99.90;;;;;;4995448;28;20177;-66
2021/01/19 05:00:00;;;;;;;6.50;3.23;;;4.70;99.90;;;;;;4977807;28;20206;-65
2021/01/19 05:02:36;;;;;;;4.97;2.60;;;4.70;99.90;;;;;;4980057;28;20187;-65
2021/01/19 05:05:32;;;;;;;4.83;2.90;;;4.70;99.90;;;;;;4995579;28;20180;-65
2021/01/19 05:08:16;;;;;;;4.63;2.87;;;4.70;99.90;;;;;;4980382;28;20217;-66
2021/01/19 05:10:59;;;;;;;9.60;2.80;;;4.70;99.90;;;;;;4975901;28;20201;-66
2021/01/19 05:13:36;;;;;;;6.87;3.17;;;4.60;99.90;;;;;;4986982;28;20595;-65
2021/01/19 05:16:03;;;;;;;3.43;2.57;;;4.60;99.90;;;;;;4995354;28;20204;-65
2021/01/19 05:18:30;;;;;;;6.60;2.60;;;4.60;99.90;;;;;;4993094;28;20234;-64
2021/01/19 05:21:00;;;;;;;11.03;2.83;;;4.60;99.90;;;;;;4995328;28;20457;-65
2021/01/19 05:23:27;;;;;;;6.43;3.27;;;4.60;99.90;;;;;;4994361;28;20189;-65
2021/01/19 05:26:00;;;;;;;5.83;2.50;;;4.70;99.90;;;;;;4995281;28;20260;-65
2021/01/19 05:28:30;;;;;;;6.90;2.47;;;4.70;99.90;;;;;;4975768;28;20221;-65
2021/01/19 05:30:55;;;;;;;5.93;2.40;;;4.70;99.90;;;;;;4975634;28;20655;-64
2021/01/19 05:33:21;;;;;;;10.47;3.17;;;4.70;99.90;;;;;;4992636;28;20177;-64
2021/01/19 05:35:47;;;;;;;4.47;2.50;;;4.70;99.90;;;;;;4994896;28;20176;-64
2021/01/19 05:38:13;;;;;;;7.23;3.27;;;4.80;99.90;;;;;;4978486;28;20185;-64
2021/01/19 05:40:43;;;;;;;7.87;2.70;;;4.80;99.90;;;;;;4975605;28;20217;-64
2021/01/19 05:43:12;;;;;;;7.57;3.20;;;4.80;99.90;;;;;;4989830;28;20181;-65
2021/01/19 05:45:50;;;;;;;6.17;3.10;;;4.80;99.90;;;;;;4992761;28;20243;-65
2021/01/19 05:48:16;;;;;;;6.17;2.70;;;4.80;99.90;;;;;;4974776;28;20651;-66
2021/01/19 05:50:42;;;;;;;3.77;2.87;;;4.80;99.90;;;;;;4975462;28;20193;-64
2021/01/19 05:53:15;;;;;;;4.10;2.30;;;4.80;99.90;;;;;;4994702;28;20177;-65
2021/01/19 05:55:45;;;;;;;2.20;2.00;;;4.90;99.90;;;;;;4980178;28;20186;-64
2021/01/19 05:58:12;;;;;;;2.50;2.30;;;4.90;99.90;;;;;;4974922;28;20173;-65
2021/01/19 06:00:40;;;;;;;4.33;2.30;;;4.90;99.90;;;;;;4987816;28;20255;-64
2021/01/19 06:03:18;;;;;;;3.40;2.37;;;5.00;99.90;;;;;;4992961;28;20177;-65
2021/01/19 06:05:44;;;;;;;3.40;2.47;;;5.00;99.90;;;;;;4994249;28;20548;-64
2021/01/19 06:08:11;;;;;;;6.47;2.73;;;5.10;99.90;;;;;;4985469;28;20210;-64
2021/01/19 06:10:40;;;;;;;5.00;2.47;;;5.10;99.90;;;;;;4973423;28;20221;-63
2021/01/19 06:13:17;;;;;;;3.60;1.93;;;5.10;99.90;;;;;;4981880;28;20548;-63
2021/01/19 06:15:43;;;;;;;3.50;1.97;;;5.20;99.90;;;;;;4993974;28;20641;-62
2021/01/19 06:18:08;;;;;;;2.97;1.90;;;5.20;99.90;;;;;;4992260;28;20176;-63
2021/01/19 06:20:44;;;;;;;4.23;2.10;;;5.20;99.90;;;;;;4993922;28;20647;-62
2021/01/19 06:23:11;;;;;;;2.47;1.80;;;5.20;99.90;;;;;;4987168;28;20181;-63
2021/01/19 06:25:37;;;;;;;4.60;2.03;;;5.30;99.90;;;;;;4974254;28;20185;-63
2021/01/19 06:28:10;;;;;;;3.00;2.10;;;5.30;99.90;;;;;;4979152;28;20693;-63
2021/01/19 06:30:35;;;;;;;2.43;1.80;;;5.30;99.90;;;;;;4993711;28;20276;-64
2021/01/19 06:33:02;;;;;;;2.73;2.10;;;5.30;99.90;;;;;;4974935;28;20264;-63
2021/01/19 06:35:29;;;;;;;2.00;1.80;;;5.30;99.90;;;;;;4974240;28;20169;-62
2021/01/19 06:37:55;;;;;;;2.70;2.10;;;5.30;99.90;;;;;;4990870;28;20215;-63
2021/01/19 06:40:23;;;;;;;4.03;1.90;;;5.30;99.90;;;;;;4993763;28;20674;-63
2021/01/19 06:43:03;;;;;;;2.97;2.03;;;5.30;99.90;;;;;;4977450;28;20239;-62
2021/01/19 06:45:33;;;;;;;3.73;1.70;;;5.30;99.90;;;;;;4985892;28;20658;-63
2021/01/19 06:48:02;;;;;;;2.73;1.70;;;5.40;99.90;;;;;;4993294;28;20204;-61
2021/01/19 06:50:30;;;;;;;3.37;2.07;;;5.40;99.90;;;;;;4981871;28;20212;-62
2021/01/19 06:53:14;;;;;;;2.67;1.73;;;5.40;99.90;;;;;;4974045;28;20632;-63
2021/01/19 06:55:57;;;;;;;2.10;1.90;;;5.40;99.90;;;;;;4985849;28;20195;-62
2021/01/19 06:58:56;;;;;;;2.10;1.60;;;5.50;99.90;;;;;;4975780;28;20674;-62
2021/01/19 07:01:22;;;;;;;1.77;1.60;;;5.40;99.90;;;;;;4992815;28;20260;-62
2021/01/19 07:03:53;;;;;;;1.80;1.50;;;5.50;99.90;;;;;;4989706;28;20793;-63
2021/01/19 07:06:27;;;;;;;2.53;1.97;;;5.50;99.90;;;;;;4958815;28;20209;-63
2021/01/19 07:09:12;;;;;;;1.50;1.40;;;5.50;99.90;;;;;;4960840;28;20573;-63
2021/01/19 07:11:38;;;;;;;2.37;1.70;;;5.50;99.90;;;;;;4992946;28;20172;-64
2021/01/19 07:14:11;;;;;;;2.20;1.50;;;5.50;99.90;;;;;;4988523;28;20670;-63
2021/01/19 07:16:56;;;;;;;2.93;2.03;;;5.50;99.90;;;;;;4973407;28;20252;-63
2021/01/19 07:19:50;;;;;;;1.97;1.77;;;5.50;99.90;;;;;;4979187;28;20243;-64
2021/01/19 07:22:19;;;;;;;1.60;1.50;;;5.50;99.90;;;;;;4984504;28;20177;-63
2021/01/19 07:24:48;;;;;;;1.67;1.57;;;5.40;99.90;;;;;;4973512;28;20173;-64
2021/01/19 07:27:20;;;;;;;1.60;1.50;;;5.40;99.90;;;;;;4980418;28;20657;-63
2021/01/19 07:29:46;;;;;;;1.53;1.43;;;5.40;99.90;;;;;;4977303;28;20205;-63
2021/01/19 07:32:15;;;;;;;2.23;1.60;;;5.40;99.90;;;;;;4992708;28;20169;-65
2021/01/19 07:34:41;;;;;;;1.70;1.60;;;5.30;99.90;;;;;;4990520;28;20176;-64
2021/01/19 07:37:08;;;;;;;2.10;1.87;;;5.40;99.90;;;;;;4972945;28;20182;-63
2021/01/19 07:39:35;;;;;;;1.60;1.50;;;5.30;99.90;;;;;;4972823;28;20259;-63
2021/01/19 07:42:14;;;;;;;2.97;1.67;;;5.40;99.90;;;;;;4992633;28;20577;-63
2021/01/19 07:44:42;;;;;;;2.37;1.80;;;5.30;99.90;;;;;;4990691;28;20181;-64
2021/01/19 07:47:12;;;;;;;1.87;1.60;;;5.30;99.90;;;;;;4992314;28;20305;-63
2021/01/19 07:49:38;;;;;;;1.70;1.60;;;5.30;99.90;;;;;;4989250;28;20220;-63
2021/01/19 07:52:12;;;;;;;1.60;1.50;;;5.30;99.90;;;;;;4973702;28;20256;-66
2021/01/19 07:54:38;;;;;;;2.57;1.63;;;5.30;99.90;;;;;;4974725;28;20184;-65
2021/01/19 07:57:15;;;;;;;3.07;2.00;;;5.30;99.90;;;;;;4992571;28;20664;-66
2021/01/19 07:59:42;;;;;;;2.30;2.10;;;5.30;99.90;;;;;;4974942;28;20620;-66
2021/01/19 08:02:08;;;;;;;1.60;1.50;;;5.30;99.90;;;;;;4974058;28;20197;-66
2021/01/19 08:04:36;;;;;;;2.03;1.80;;;5.30;99.90;;;;;;4972978;28;20323;-66
2021/01/19 08:07:21;;;;;;;3.03;1.70;;;5.30;99.90;;;;;;4981227;28;20239;-65
2021/01/19 08:09:46;;;;;;;2.27;2.00;;;5.30;99.90;;;;;;4991916;28;20211;-63
2021/01/19 08:12:15;;;;;;;1.93;1.80;;;5.30;99.90;;;;;;4982404;28;20545;-61
2021/01/19 08:14:45;;;;;;;2.13;1.50;;;5.30;99.90;;;;;;4971977;28;20650;-62
2021/01/19 08:17:11;;;;;;;1.83;1.60;;;5.30;99.90;;;;;;4973371;28;20196;-64
2021/01/19 08:19:42;;;;;;;2.33;1.80;;;5.30;99.90;;;;;;4976954;28;20698;-64
2021/01/19 08:22:09;;;;;;;2.67;2.47;;;5.30;99.90;;;;;;4972795;28;20235;-66
2021/01/19 08:24:35;;;;;;;2.73;2.47;;;5.30;99.90;;;;;;4978888;28;20527;-61
2021/01/19 08:27:01;;;;;;;6.70;1.70;;;5.30;99.90;;;;;;4991694;28;20315;-64
2021/01/19 08:29:27;;;;;;;4.43;2.10;;;5.30;99.90;;;;;;4986529;28;20288;-63
2021/01/19 08:32:00;;;;;;;2.40;1.70;;;5.40;99.90;;;;;;4983038;28;20189;-62
2021/01/19 08:34:27;;;;;;;4.53;2.33;;;5.40;99.90;;;;;;4987422;28;20173;-62
2021/01/19 08:36:55;;;;;;;1.93;1.70;;;5.40;99.90;;;;;;4971148;28;20184;-64
2021/01/19 08:39:21;;;;;;;2.13;1.60;;;5.40;99.90;;;;;;4974706;28;20316;-63
2021/01/19 08:41:50;;;;;;;3.03;1.80;;;5.40;99.90;;;;;;4975538;28;20200;-62
2021/01/19 08:44:17;;;;;;;3.87;1.70;;;5.40;99.90;;;;;;4990006;28;20635;-63
2021/01/19 08:46:43;;;;;;;2.27;1.50;;;5.40;99.90;;;;;;4972134;28;20194;-67
2021/01/19 08:49:18;;;;;;;3.87;1.60;;;5.40;99.90;;;;;;4973120;28;20209;-63
2021/01/19 08:51:48;;;;;;;2.10;1.53;;;5.40;99.90;;;;;;4971927;28;20173;-65
2021/01/19 08:54:14;;;;;;;2.37;1.77;;;5.40;99.90;;;;;;4986884;28;20601;-63
2021/01/19 08:56:41;;;;;;;2.47;1.60;;;5.40;99.90;;;;;;4991326;28;20173;-64
2021/01/19 08:59:17;;;;;;;1.40;1.30;;;5.50;99.90;;;;;;4977701;28;20284;-63
2021/01/19 09:01:53;;;;;;;1.60;1.50;;;5.50;99.90;;;;;;4972013;28;20208;-61
2021/01/19 09:04:29;;;;;;;2.60;2.20;;;5.50;99.90;;;;;;4973459;28;20181;-64
2021/01/19 09:07:08;;;;;;;5.23;3.27;;;5.50;99.90;;;;;;4970713;28;20260;-64
2021/01/19 09:09:34;;;;;;;2.00;1.80;;;5.50;99.90;;;;;;4987480;28;20211;-60
2021/01/19 09:12:00;;;;;;;2.00;1.63;;;5.50;99.90;;;;;;4991683;28;20177;-64
2021/01/19 09:14:26;;;;;;;2.20;1.40;;;5.50;99.90;;;;;;4984603;28;20173;-62
2021/01/19 09:16:54;;;;;;;2.50;1.80;;;5.50;99.90;;;;;;4977469;28;20682;-63
2021/01/19 09:19:20;;;;;;;1.53;1.43;;;5.50;99.90;;;;;;4987953;28;20271;-61
2021/01/19 09:21:46;;;;;;;4.20;1.80;;;5.50;99.90;;;;;;4986582;28;20607;-66
2021/01/19 09:24:16;;;;;;;2.43;2.23;;;5.50;99.90;;;;;;4991978;28;20177;-64
2021/01/19 09:26:56;;;;;;;3.80;1.60;;;5.50;99.90;;;;;;4994273;28;20211;-63
2021/01/19 09:29:32;;;;;;;2.70;1.50;;;5.50;99.90;;;;;;4995433;28;20608;-64
2021/01/19 09:31:59;;;;;;;2.07;1.73;;;5.60;99.90;;;;;;4990377;28;20631;-64
2021/01/19 09:34:26;;;;;;;2.23;1.80;;;5.60;99.90;;;;;;4975351;28;20644;-66
2021/01/19 09:36:52;;;;;;;3.13;1.70;;;5.60;99.90;;;;;;4977715;28;20276;-63
2021/01/19 09:39:29;;;;;;;1.67;1.57;;;5.70;99.90;;;;;;4994568;28;20236;-63
2021/01/19 09:41:57;;;;;;;3.93;1.80;;;5.70;99.90;;;;;;4987791;28;20185;-63
2021/01/19 09:44:24;;;;;;;1.83;1.70;;;5.80;99.90;;;;;;4993714;28;20232;-64
2021/01/19 09:46:53;;;;;;;3.17;2.03;;;5.90;99.90;;;;;;4989053;28;20180;-64
2021/01/19 09:49:21;;;;;;;1.20;1.17;;;6.00;99.90;;;;;;4974928;28;20237;-63
2021/01/19 09:51:46;;;;;;;2.00;1.77;;;6.10;99.90;;;;;;4978776;28;20165;-64
2021/01/19 09:54:12;;;;;;;1.60;1.50;;;6.20;99.90;;;;;;4994429;28;20176;-64
2021/01/19 09:56:37;;;;;;;1.60;1.50;;;6.30;99.90;;;;;;4991677;28;20185;-65
2021/01/19 09:59:05;;;;;;;1.70;1.60;;;6.30;99.90;;;;;;4974706;28;20655;-63
2021/01/19 10:01:31;;;;;;;1.80;1.70;;;6.40;99.90;;;;;;4975300;28;20177;-63
2021/01/19 10:03:57;;;;;;;2.83;1.80;;;6.40;99.90;;;;;;4994159;28;20545;-62
2021/01/19 10:06:25;;;;;;;1.50;1.40;;;6.50;99.90;;;;;;4994632;28;20247;-63
2021/01/19 10:08:54;;;;;;;2.73;1.70;;;6.50;99.90;;;;;;4974522;28;20289;-63
2021/01/19 10:11:34;;;;;;;2.43;1.50;;;6.60;99.90;;;;;;4989690;28;20192;-65
2021/01/19 10:14:13;;;;;;;2.13;1.50;;;6.60;99.90;;;;;;4994111;28;20172;-62
2021/01/19 10:16:48;;;;;;;2.37;1.60;;;6.60;99.90;;;;;;4976291;28;20182;-64
2021/01/19 10:19:30;;;;;;;1.40;1.30;;;6.60;99.90;;;;;;4974487;28;20197;-62
2021/01/19 10:21:58;;;;;;;2.10;1.60;;;6.70;99.90;;;;;;4991924;28;20188;-63
2021/01/19 10:24:25;;;;;;;1.47;1.37;;;6.70;99.90;;;;;;4993874;28;20173;-62
2021/01/19 10:27:05;;;;;;;1.70;1.60;;;6.70;99.90;;;;;;4991868;28;20181;-63
2021/01/19 10:29:41;;;;;;;1.93;1.70;;;6.70;99.90;;;;;;4993430;28;20697;-64
2021/01/19 10:32:11;;;;;;;2.60;2.30;;;6.70;99.90;;;;;;4973147;28;20243;-65
2021/01/19 10:34:38;;;;;;;2.87;1.90;;;6.80;99.90;;;;;;4973062;28;20220;-64
2021/01/19 10:37:04;;;;;;;3.70;1.80;;;6.80;99.90;;;;;;4981866;28;20174;-62
2021/01/19 10:39:31;;;;;;;3.23;2.00;;;6.80;99.90;;;;;;4973683;28;20206;-63
2021/01/19 10:41:58;;;;;;;2.03;1.43;;;6.80;99.90;;;;;;4989797;28;20180;-64
2021/01/19 10:44:27;;;;;;;2.70;2.30;;;6.90;99.90;;;;;;4993420;28;20179;-63
2021/01/19 10:47:02;;;;;;;1.60;1.50;;;6.90;99.90;;;;;;4977684;28;20570;-63
2021/01/19 10:49:31;;;;;;;1.80;1.50;;;6.90;99.90;;;;;;4973483;28;20205;-62
2021/01/19 10:51:58;;;;;;;2.47;1.40;;;7.00;99.90;;;;;;4988722;28;20436;-62
2021/01/19 10:54:25;;;;;;;2.20;1.70;;;7.00;99.90;;;;;;4993109;28;20259;-62
2021/01/19 10:57:05;;;;;;;1.43;1.33;;;7.00;99.90;;;;;;4978984;28;20552;-63
2021/01/19 10:59:32;;;;;;;4.10;1.50;;;7.10;99.90;;;;;;4973628;28;20197;-64
2021/01/19 11:01:58;;;;;;;2.40;1.33;;;7.10;99.90;;;;;;4987219;28;20188;-63
2021/01/19 11:04:24;;;;;;;1.40;1.30;;;7.10;99.90;;;;;;4992248;28;20204;-64
2021/01/19 11:06:49;;;;;;;1.80;1.60;;;7.20;99.90;;;;;;4973361;28;20476;-61
2021/01/19 11:09:15;;;;;;;1.43;1.33;;;7.20;99.90;;;;;;4973384;28;20217;-63
2021/01/19 11:11:41;;;;;;;3.23;1.53;;;7.30;99.90;;;;;;4991458;28;20204;-63
2021/01/19 11:14:08;;;;;;;2.73;1.60;;;7.30;99.90;;;;;;4992920;28;20296;-62
2021/01/19 11:16:37;;;;;;;1.80;1.70;;;7.40;99.90;;;;;;4975494;28;20180;-62
2021/01/19 11:19:05;;;;;;;3.03;1.67;;;7.50;99.90;;;;;;4973182;28;20212;-64
2021/01/19 11:21:32;;;;;;;2.37;1.40;;;7.50;99.90;;;;;;4974354;28;20665;-63
2021/01/19 11:23:59;;;;;;;1.80;1.70;;;7.60;99.90;;;;;;4973317;28;20182;-62
2021/01/19 11:26:25;;;;;;;2.27;1.90;;;7.60;99.90;;;;;;4989358;28;20195;-64
2021/01/19 11:28:51;;;;;;;2.37;1.40;;;7.70;99.90;;;;;;4992077;28;20200;-62
2021/01/19 11:31:21;;;;;;;1.27;1.23;;;7.70;99.90;;;;;;4977789;28;20185;-64
2021/01/19 11:33:47;;;;;;;3.13;1.90;;;7.80;99.90;;;;;;4981575;28;20561;-67
2021/01/19 11:36:21;;;;;;;1.97;1.80;;;7.80;99.90;;;;;;4992612;28;20207;-65
2021/01/19 11:38:48;;;;;;;1.70;1.60;;;7.80;99.90;;;;;;4983254;28;20217;-64
2021/01/19 11:41:18;;;;;;;1.87;1.37;;;7.80;99.90;;;;;;4978318;28;20267;-64
2021/01/19 11:43:43;;;;;;;1.50;1.40;;;7.80;99.90;;;;;;4992113;28;20185;-64
2021/01/19 11:46:10;;;;;;;2.03;1.60;;;7.80;99.90;;;;;;4988488;28;20268;-62
2021/01/19 11:48:36;;;;;;;1.80;1.70;;;7.80;99.90;;;;;;4971818;28;20193;-64
2021/01/19 11:51:01;;;;;;;3.53;1.70;;;7.70;99.90;;;;;;4974702;28;20263;-64
2021/01/19 11:53:27;;;;;;;1.60;1.50;;;7.70;99.90;;;;;;4992235;28;20216;-63
2021/01/19 11:55:53;;;;;;;2.10;1.90;;;7.70;99.90;;;;;;4991698;28;20177;-63
2021/01/19 11:58:21;;;;;;;2.40;1.77;;;7.70;99.90;;;;;;4972918;28;20177;-63
2021/01/19 12:00:47;;;;;;;1.60;1.50;;;7.70;99.90;;;;;;4972540;28;20295;-61
2021/01/19 12:03:13;;;;;;;1.63;1.53;;;7.80;99.90;;;;;;4990918;28;20682;-63
2021/01/19 12:05:40;;;;;;;1.37;1.37;;;7.70;99.90;;;;;;4991871;28;20290;-62
2021/01/19 12:08:05;;;;;;;1.70;1.60;;;7.70;99.90;;;;;;4974539;28;20197;-64
2021/01/19 12:10:31;;;;;;;2.37;1.67;;;7.80;99.90;;;;;;4972529;28;20200;-60
2021/01/19 12:12:57;;;;;;;1.60;1.50;;;7.80;99.90;;;;;;4987615;28;20184;-62
2021/01/19 12:15:22;;;;;;;1.67;1.57;;;7.80;99.90;;;;;;4991967;28;20214;-63
2021/01/19 12:17:51;;;;;;;1.30;1.30;;;7.80;99.90;;;;;;4977167;28;20676;-65
2021/01/19 12:20:17;;;;;;;2.80;1.90;;;7.80;99.90;;;;;;4972135;28;20654;-63
2021/01/19 12:22:43;;;;;;;1.60;1.50;;;7.80;99.90;;;;;;4984446;28;20263;-63
2021/01/19 12:25:09;;;;;;;1.57;1.47;;;7.80;99.90;;;;;;4992235;28;20251;-63
2021/01/19 12:27:34;;;;;;;1.67;1.57;;;7.80;99.90;;;;;;4980673;28;20233;-64
2021/01/19 12:30:00;;;;;;;1.40;1.30;;;7.90;99.90;;;;;;4977807;28;20193;-64
2021/01/19 12:32:26;;;;;;;2.03;1.87;;;7.90;99.90;;;;;;4990648;28;20549;-61
2021/01/19 12:34:51;;;;;;;3.17;1.93;;;8.00;99.90;;;;;;4975401;28;20178;-64
2021/01/19 12:37:17;;;;;;;1.63;1.50;;;8.00;99.90;;;;;;4972145;28;20245;-63
2021/01/19 12:39:43;;;;;;;1.60;1.50;;;8.00;99.90;;;;;;4986756;28;20267;-62
2021/01/19 12:42:10;;;;;;;1.50;1.40;;;8.00;99.90;;;;;;4991751;28;20173;-64
2021/01/19 12:44:36;;;;;;;3.40;1.50;;;8.10;99.90;;;;;;4978296;28;20615;-62
2021/01/19 12:47:02;;;;;;;1.80;1.53;;;8.10;99.90;;;;;;4971173;28;20177;-63
2021/01/19 12:49:27;;;;;;;2.03;1.80;;;8.10;99.90;;;;;;4982327;28;20758;-63
2021/01/19 12:51:53;;;;;;;2.53;1.53;;;8.10;99.90;;;;;;4991648;28;20685;-64
2021/01/19 12:54:19;;;;;;;1.50;1.40;;;8.10;99.90;;;;;;4981346;28;20192;-61
2021/01/19 12:56:45;;;;;;;1.60;1.50;;;8.10;99.90;;;;;;4972085;28;20254;-64
2021/01/19 12:59:10;;;;;;;1.87;1.60;;;8.10;99.90;;;;;;4984209;28;20197;-63
2021/01/19 13:01:37;;;;;;;2.27;1.50;;;8.10;99.90;;;;;;4993991;28;20177;-63
2021/01/19 13:04:03;;;;;;;1.50;1.40;;;8.10;99.90;;;;;;4984249;28;20666;-63
2021/01/19 13:06:29;;;;;;;1.50;1.40;;;8.10;99.90;;;;;;4975875;28;20173;-64
2021/01/19 13:08:55;;;;;;;2.07;1.83;;;8.10;99.90;;;;;;4980522;28;20204;-64